Terminal Aerodrome Forecast
Issued by NWS Central Illinois

Home | Current Version | Previous Version | Text Only | Print | Product List | Glossary On
Versions: 1 2 3 4 5 6 7 8 9 10 11 12 13 14 15 16 17 18 19 20 21 22 23
319
FTUS43 KILX 270523
TAFSPI
TAF
KSPI 270523Z 2706/2806 VRB03KT P6SM SCT030
     FM270700 08004KT 6SM BR OVC025
     FM271400 09010KT 2SM -SHRA BR OVC006
     FM272100 01009KT 3SM -SHRA BR VCTS BKN006CB OVC012
     FM280100 33008KT 5SM BR OVC015=

USA.gov is the U.S. government's official web portal to all federal, state and local government web resources and services.